sensor_id;sensor_type;location;lat;lon;timestamp;pressure;altitude;pressure_sealevel;temperature;humidity
51099;BME280;37146;48.210;16.234;2023-06-14T00:02:02;98465.72;;;9.54;100.00
51099;BME280;37146;48.210;16.234;2023-06-14T00:04:27;98463.84;;;9.56;100.00
51099;BME280;37146;48.210;16.234;2023-06-14T00:06:53;98461.22;;;9.54;100.00
51099;BME280;37146;48.210;16.234;2023-06-14T00:09:20;98471.22;;;9.51;100.00
51099;BME280;37146;48.210;16.234;2023-06-14T00:11:46;98462.28;;;9.52;100.00
51099;BME280;37146;48.210;16.234;2023-06-14T00:14:11;98472.16;;;9.66;100.00
51099;BME280;37146;48.210;16.234;2023-06-14T00:16:36;98463.47;;;9.62;100.00
51099;BME280;37146;48.210;16.234;2023-06-14T00:19:02;98472.44;;;9.61;100.00
51099;BME280;37146;48.210;16.234;2023-06-14T00:21:30;98471.75;;;9.57;100.00
51099;BME280;37146;48.210;16.234;2023-06-14T00:23:57;98476.50;;;9.36;100.00
51099;BME280;37146;48.210;16.234;2023-06-14T00:26:22;98473.56;;;9.57;100.00
51099;BME280;37146;48.210;16.234;2023-06-14T00:28:47;98460.75;;;9.48;100.00
51099;BME280;37146;48.210;16.234;2023-06-14T00:31:12;98470.97;;;9.39;100.00
51099;BME280;37146;48.210;16.234;2023-06-14T00:33:37;98468.56;;;9.51;100.00
51099;BME280;37146;48.210;16.234;2023-06-14T00:36:03;98469.34;;;9.37;100.00
51099;BME280;37146;48.210;16.234;2023-06-14T00:38:28;98469.50;;;9.34;100.00
51099;BME280;37146;48.210;16.234;2023-06-14T00:40:53;98457.44;;;9.42;100.00
51099;BME280;37146;48.210;16.234;2023-06-14T00:43:18;98456.91;;;9.20;100.00
51099;BME280;37146;48.210;16.234;2023-06-14T00:45:44;98460.69;;;9.16;100.00
51099;BME280;37146;48.210;16.234;2023-06-14T00:48:09;98460.25;;;9.07;100.00
51099;BME280;37146;48.210;16.234;2023-06-14T00:50:35;98463.97;;;9.21;100.00
51099;BME280;37146;48.210;16.234;2023-06-14T00:53:01;98463.13;;;9.20;100.00
51099;BME280;37146;48.210;16.234;2023-06-14T00:55:27;98460.63;;;9.33;100.00
51099;BME280;37146;48.210;16.234;2023-06-14T00:57:53;98458.38;;;9.25;100.00
51099;BME280;37146;48.210;16.234;2023-06-14T01:00:19;98456.09;;;9.35;100.00
51099;BME280;37146;48.210;16.234;2023-06-14T01:02:44;98448.75;;;9.39;100.00
51099;BME280;37146;48.210;16.234;2023-06-14T01:05:09;98448.41;;;9.29;100.00
51099;BME280;37146;48.210;16.234;2023-06-14T01:15:26;98450.66;;;9.37;100.00
51099;BME280;37146;48.210;16.234;2023-06-14T01:17:52;98445.06;;;9.41;100.00
51099;BME280;37146;48.210;16.234;2023-06-14T01:20:21;98436.88;;;9.28;100.00
51099;BME280;37146;48.210;16.234;2023-06-14T01:22:50;98433.59;;;9.39;100.00
51099;BME280;37146;48.210;16.234;2023-06-14T01:25:16;98437.13;;;9.24;100.00
51099;BME280;37146;48.210;16.234;2023-06-14T01:27:45;98436.00;;;9.12;100.00
51099;BME280;37146;48.210;16.234;2023-06-14T01:30:11;98440.91;;;9.20;100.00
51099;BME280;37146;48.210;16.234;2023-06-14T01:32:37;98449.84;;;9.19;100.00
51099;BME280;37146;48.210;16.234;2023-06-14T01:35:03;98442.28;;;9.27;100.00
51099;BME280;37146;48.210;16.234;2023-06-14T01:37:28;98440.75;;;9.39;100.00
51099;BME280;37146;48.210;16.234;2023-06-14T01:39:55;98432.31;;;9.31;100.00
51099;BME280;37146;48.210;16.234;2023-06-14T01:42:20;98440.34;;;9.47;100.00
51099;BME280;37146;48.210;16.234;2023-06-14T01:44:46;98437.31;;;9.53;100.00
51099;BME280;37146;48.210;16.234;2023-06-14T01:47:11;98442.63;;;9.21;100.00
51099;BME280;37146;48.210;16.234;2023-06-14T01:49:38;98431.13;;;9.36;100.00
51099;BME280;37146;48.210;16.234;2023-06-14T01:52:03;98431.44;;;9.30;100.00
51099;BME280;37146;48.210;16.234;2023-06-14T01:54:28;98435.25;;;9.26;100.00
51099;BME280;37146;48.210;16.234;2023-06-14T01:56:54;98429.72;;;9.29;100.00
51099;BME280;37146;48.210;16.234;2023-06-14T01:59:19;98431.59;;;9.27;100.00
51099;BME280;37146;48.210;16.234;2023-06-14T02:01:44;98432.66;;;9.40;100.00
51099;BME280;37146;48.210;16.234;2023-06-14T02:04:11;98431.97;;;9.37;100.00
51099;BME280;37146;48.210;16.234;2023-06-14T02:06:36;98431.28;;;9.33;100.00
51099;BME280;37146;48.210;16.234;2023-06-14T02:09:01;98434.03;;;9.32;100.00
51099;BME280;37146;48.210;16.234;2023-06-14T02:11:28;98424.56;;;9.26;100.00
51099;BME280;37146;48.210;16.234;2023-06-14T02:13:53;98421.97;;;9.40;100.00
51099;BME280;37146;48.210;16.234;2023-06-14T02:16:20;98428.19;;;9.41;100.00
51099;BME280;37146;48.210;16.234;2023-06-14T02:18:45;98435.00;;;9.47;100.00
51099;BME280;37146;48.210;16.234;2023-06-14T02:21:10;98421.81;;;9.43;100.00
51099;BME280;37146;48.210;16.234;2023-06-14T02:23:35;98441.06;;;9.17;100.00
51099;BME280;37146;48.210;16.234;2023-06-14T02:26:01;98439.03;;;9.22;100.00
51099;BME280;37146;48.210;16.234;2023-06-14T02:28:27;98445.72;;;9.13;100.00
51099;BME280;37146;48.210;16.234;2023-06-14T02:30:53;98434.22;;;9.28;100.00
51099;BME280;37146;48.210;16.234;2023-06-14T02:33:18;98438.41;;;9.33;100.00
51099;BME280;37146;48.210;16.234;2023-06-14T02:35:43;98438.00;;;9.40;100.00
51099;BME280;37146;48.210;16.234;2023-06-14T02:38:08;98447.63;;;9.43;100.00
51099;BME280;37146;48.210;16.234;2023-06-14T02:40:33;98447.47;;;9.46;100.00
51099;BME280;37146;48.210;16.234;2023-06-14T02:42:59;98450.03;;;9.16;100.00
51099;BME280;37146;48.210;16.234;2023-06-14T02:45:24;98437.72;;;9.29;100.00
51099;BME280;37146;48.210;16.234;2023-06-14T02:47:50;98448.81;;;9.21;100.00
51099;BME280;37146;48.210;16.234;2023-06-14T02:50:16;98448.81;;;9.05;100.00
51099;BME280;37146;48.210;16.234;2023-06-14T02:52:41;98455.28;;;9.01;100.00
51099;BME280;37146;48.210;16.234;2023-06-14T02:55:07;98449.84;;;9.19;100.00
51099;BME280;37146;48.210;16.234;2023-06-14T02:57:33;98456.75;;;9.23;100.00
51099;BME280;37146;48.210;16.234;2023-06-14T02:59:58;98444.28;;;9.39;100.00
51099;BME280;37146;48.210;16.234;2023-06-14T03:02:23;98455.03;;;9.22;100.00
51099;BME280;37146;48.210;16.234;2023-06-14T03:04:48;98456.59;;;9.26;100.00
51099;BME280;37146;48.210;16.234;2023-06-14T03:07:14;98458.66;;;9.21;100.00
51099;BME280;37146;48.210;16.234;2023-06-14T03:09:44;98451.06;;;9.29;100.00
51099;BME280;37146;48.210;16.234;2023-06-14T03:12:10;98452.88;;;9.12;100.00
51099;BME280;37146;48.210;16.234;2023-06-14T03:14:36;98455.28;;;9.17;100.00
51099;BME280;37146;48.210;16.234;2023-06-14T03:17:02;98458.22;;;9.12;100.00
51099;BME280;37146;48.210;16.234;2023-06-14T03:19:27;98456.31;;;9.15;100.00
51099;BME280;37146;48.210;16.234;2023-06-14T03:21:52;98465.56;;;9.25;100.00
51099;BME280;37146;48.210;16.234;2023-06-14T03:24:18;98461.94;;;9.26;100.00
51099;BME280;37146;48.210;16.234;2023-06-14T03:26:44;98463.16;;;9.36;100.00
51099;BME280;37146;48.210;16.234;2023-06-14T03:29:10;98462.25;;;9.20;100.00
51099;BME280;37146;48.210;16.234;2023-06-14T03:31:35;98461.47;;;9.18;100.00
51099;BME280;37146;48.210;16.234;2023-06-14T03:34:01;98468.09;;;9.10;100.00
51099;BME280;37146;48.210;16.234;2023-06-14T03:36:26;98469.31;;;9.21;100.00
51099;BME280;37146;48.210;16.234;2023-06-14T03:38:52;98466.00;;;9.00;100.00
51099;BME280;37146;48.210;16.234;2023-06-14T03:41:18;98475.03;;;8.97;100.00
51099;BME280;37146;48.210;16.234;2023-06-14T03:43:43;98474.25;;;8.95;100.00
51099;BME280;37146;48.210;16.234;2023-06-14T03:46:08;98482.09;;;8.98;100.00
51099;BME280;37146;48.210;16.234;2023-06-14T03:48:33;98493.84;;;9.11;100.00
51099;BME280;37146;48.210;16.234;2023-06-14T03:50:58;98493.22;;;9.06;100.00
51099;BME280;37146;48.210;16.234;2023-06-14T03:53:24;98500.97;;;9.11;100.00
51099;BME280;37146;48.210;16.234;2023-06-14T03:55:50;98499.44;;;9.23;100.00
51099;BME280;37146;48.210;16.234;2023-06-14T03:58:17;98504.44;;;9.29;100.00
51099;BME280;37146;48.210;16.234;2023-06-14T04:00:42;98506.78;;;9.35;100.00
51099;BME280;37146;48.210;16.234;2023-06-14T04:03:08;98500.53;;;9.52;100.00
51099;BME280;37146;48.210;16.234;2023-06-14T04:05:33;98506.53;;;9.40;100.00
51099;BME280;37146;48.210;16.234;2023-06-14T04:07:58;98501.63;;;9.48;100.00
51099;BME280;37146;48.210;16.234;2023-06-14T04:10:25;98503.59;;;9.44;100.00
51099;BME280;37146;48.210;16.234;2023-06-14T04:12:50;98511.78;;;9.57;100.00
51099;BME280;37146;48.210;16.234;2023-06-14T04:15:16;98513.50;;;9.42;100.00
51099;BME280;37146;48.210;16.234;2023-06-14T04:17:42;98517.06;;;9.59;100.00
51099;BME280;37146;48.210;16.234;2023-06-14T04:20:07;98522.56;;;9.56;100.00
51099;BME280;37146;48.210;16.234;2023-06-14T04:22:34;98524.09;;;9.60;100.00
51099;BME280;37146;48.210;16.234;2023-06-14T04:24:59;98526.28;;;9.69;100.00
51099;BME280;37146;48.210;16.234;2023-06-14T04:27:26;98529.28;;;9.63;100.00
51099;BME280;37146;48.210;16.234;2023-06-14T04:29:52;98528.69;;;9.74;100.00
51099;BME280;37146;48.210;16.234;2023-06-14T04:32:22;98530.31;;;9.77;100.00
51099;BME280;37146;48.210;16.234;2023-06-14T04:34:50;98531.50;;;10.03;100.00
51099;BME280;37146;48.210;16.234;2023-06-14T04:37:18;98534.25;;;10.17;100.00
51099;BME280;37146;48.210;16.234;2023-06-14T04:39:45;98531.81;;;10.29;100.00
51099;BME280;37146;48.210;16.234;2023-06-14T04:42:11;98529.81;;;10.32;100.00
51099;BME280;37146;48.210;16.234;2023-06-14T04:44:36;98536.69;;;10.06;100.00
51099;BME280;37146;48.210;16.234;2023-06-14T04:47:04;98542.19;;;10.19;100.00
51099;BME280;37146;48.210;16.234;2023-06-14T04:49:31;98532.81;;;10.12;100.00
51099;BME280;37146;48.210;16.234;2023-06-14T04:51:57;98534.94;;;10.21;100.00
51099;BME280;37146;48.210;16.234;2023-06-14T04:54:24;98542.53;;;10.13;100.00
51099;BME280;37146;48.210;16.234;2023-06-14T04:56:52;98552.31;;;10.28;100.00
51099;BME280;37146;48.210;16.234;2023-06-14T04:59:20;98544.81;;;10.51;100.00
51099;BME280;37146;48.210;16.234;2023-06-14T05:01:45;98552.50;;;10.72;100.00
51099;BME280;37146;48.210;16.234;2023-06-14T05:04:13;98546.16;;;10.89;100.00
51099;BME280;37146;48.210;16.234;2023-06-14T05:06:38;98542.38;;;11.07;100.00
51099;BME280;37146;48.210;16.234;2023-06-14T05:09:04;98538.47;;;11.13;100.00
51099;BME280;37146;48.210;16.234;2023-06-14T05:11:29;98540.63;;;11.35;100.00
51099;BME280;37146;48.210;16.234;2023-06-14T05:13:54;98539.97;;;11.46;100.00
51099;BME280;37146;48.210;16.234;2023-06-14T05:16:20;98548.09;;;11.59;100.00
51099;BME280;37146;48.210;16.234;2023-06-14T05:18:48;98549.53;;;11.50;100.00
51099;BME280;37146;48.210;16.234;2023-06-14T05:21:14;98547.91;;;11.48;100.00
51099;BME280;37146;48.210;16.234;2023-06-14T05:23:42;98547.97;;;11.60;100.00
51099;BME280;37146;48.210;16.234;2023-06-14T05:26:08;98552.06;;;11.95;100.00
51099;BME280;37146;48.210;16.234;2023-06-14T05:28:33;98548.34;;;11.83;100.00
51099;BME280;37146;48.210;16.234;2023-06-14T05:30:59;98553.97;;;11.93;100.00
51099;BME280;37146;48.210;16.234;2023-06-14T05:33:24;98542.22;;;12.23;100.00
51099;BME280;37146;48.210;16.234;2023-06-14T05:35:49;98545.84;;;12.49;100.00
51099;BME280;37146;48.210;16.234;2023-06-14T05:38:15;98541.69;;;12.58;100.00
51099;BME280;37146;48.210;16.234;2023-06-14T05:40:40;98547.41;;;12.79;100.00
51099;BME280;37146;48.210;16.234;2023-06-14T05:43:05;98546.38;;;12.95;100.00
51099;BME280;37146;48.210;16.234;2023-06-14T05:45:30;98553.69;;;13.19;100.00
51099;BME280;37146;48.210;16.234;2023-06-14T05:47:56;98547.22;;;13.34;94.77
51099;BME280;37146;48.210;16.234;2023-06-14T05:50:21;98543.78;;;13.58;95.08
51099;BME280;37146;48.210;16.234;2023-06-14T05:52:46;98543.13;;;13.67;94.56
51099;BME280;37146;48.210;16.234;2023-06-14T05:55:12;98550.50;;;13.89;93.44
51099;BME280;37146;48.210;16.234;2023-06-14T05:57:37;98550.09;;;14.20;95.09
51099;BME280;37146;48.210;16.234;2023-06-14T06:00:02;98552.66;;;14.21;93.82
51099;BME280;37146;48.210;16.234;2023-06-14T06:02:35;98552.94;;;14.05;92.21
51099;BME280;37146;48.210;16.234;2023-06-14T06:05:00;98554.09;;;14.38;93.72
51099;BME280;37146;48.210;16.234;2023-06-14T06:07:26;98558.28;;;14.67;91.16
51099;BME280;37146;48.210;16.234;2023-06-14T06:09:51;98562.13;;;14.63;89.75
51099;BME280;37146;48.210;16.234;2023-06-14T06:12:16;98563.22;;;14.84;88.28
51099;BME280;37146;48.210;16.234;2023-06-14T06:14:41;98562.63;;;14.92;87.43
51099;BME280;37146;48.210;16.234;2023-06-14T06:17:07;98564.19;;;15.19;88.32
51099;BME280;37146;48.210;16.234;2023-06-14T06:19:32;98565.91;;;15.20;87.05
51099;BME280;37146;48.210;16.234;2023-06-14T06:21:57;98561.06;;;15.01;88.96
51099;BME280;37146;48.210;16.234;2023-06-14T06:24:22;98563.75;;;15.01;87.93
51099;BME280;37146;48.210;16.234;2023-06-14T06:26:47;98565.75;;;15.22;84.39
51099;BME280;37146;48.210;16.234;2023-06-14T06:29:13;98568.47;;;15.22;82.65
51099;BME280;37146;48.210;16.234;2023-06-14T06:31:39;98570.06;;;15.47;77.88
51099;BME280;37146;48.210;16.234;2023-06-14T06:34:04;98571.03;;;15.35;80.38
51099;BME280;37146;48.210;16.234;2023-06-14T06:36:29;98569.09;;;15.48;76.23
51099;BME280;37146;48.210;16.234;2023-06-14T06:38:55;98579.38;;;15.66;74.27
51099;BME280;37146;48.210;16.234;2023-06-14T06:41:20;98573.88;;;15.79;75.74
51099;BME280;37146;48.210;16.234;2023-06-14T06:43:45;98582.84;;;15.90;77.60
51099;BME280;37146;48.210;16.234;2023-06-14T06:46:10;98581.00;;;15.80;79.10
51099;BME280;37146;48.210;16.234;2023-06-14T06:48:35;98583.72;;;15.91;76.33
51099;BME280;37146;48.210;16.234;2023-06-14T06:51:01;98581.94;;;16.24;75.25
51099;BME280;37146;48.210;16.234;2023-06-14T06:53:26;98579.13;;;16.14;74.09
51099;BME280;37146;48.210;16.234;2023-06-14T06:55:51;98572.03;;;16.02;69.14
51099;BME280;37146;48.210;16.234;2023-06-14T06:58:16;98580.84;;;16.15;69.57
51099;BME280;37146;48.210;16.234;2023-06-14T07:00:42;98580.97;;;16.25;68.93
51099;BME280;37146;48.210;16.234;2023-06-14T07:03:07;98577.50;;;16.34;68.54
51099;BME280;37146;48.210;16.234;2023-06-14T07:05:32;98569.28;;;16.36;66.85
51099;BME280;37146;48.210;16.234;2023-06-14T07:07:57;98572.28;;;16.54;66.43
51099;BME280;37146;48.210;16.234;2023-06-14T07:10:22;98572.97;;;16.67;67.94
51099;BME280;37146;48.210;16.234;2023-06-14T07:12:49;98576.06;;;16.63;64.15
51099;BME280;37146;48.210;16.234;2023-06-14T07:15:14;98578.03;;;16.61;64.98
51099;BME280;37146;48.210;16.234;2023-06-14T07:17:40;98584.38;;;16.71;67.65
51099;BME280;37146;48.210;16.234;2023-06-14T07:20:05;98594.47;;;16.58;65.03
51099;BME280;37146;48.210;16.234;2023-06-14T07:22:36;98589.34;;;16.87;63.99
51099;BME280;37146;48.210;16.234;2023-06-14T07:25:01;98593.16;;;16.84;64.40
51099;BME280;37146;48.210;16.234;2023-06-14T07:27:27;98596.03;;;17.04;64.79
51099;BME280;37146;48.210;16.234;2023-06-14T07:29:53;98598.47;;;17.28;64.15
51099;BME280;37146;48.210;16.234;2023-06-14T07:32:18;98600.41;;;17.17;62.22
51099;BME280;37146;48.210;16.234;2023-06-14T07:34:43;98605.50;;;17.62;63.97
51099;BME280;37146;48.210;16.234;2023-06-14T07:37:08;98606.31;;;17.10;62.79
51099;BME280;37146;48.210;16.234;2023-06-14T07:39:34;98609.50;;;17.15;61.96
51099;BME280;37146;48.210;16.234;2023-06-14T07:41:59;98605.06;;;17.14;63.36
51099;BME280;37146;48.210;16.234;2023-06-14T07:44:24;98602.56;;;17.23;63.72
51099;BME280;37146;48.210;16.234;2023-06-14T07:46:50;98606.13;;;17.23;65.01
51099;BME280;37146;48.210;16.234;2023-06-14T07:49:15;98600.59;;;17.25;65.73
51099;BME280;37146;48.210;16.234;2023-06-14T07:51:40;98610.78;;;17.00;63.60
51099;BME280;37146;48.210;16.234;2023-06-14T07:54:06;98600.50;;;16.94;62.41
51099;BME280;37146;48.210;16.234;2023-06-14T07:56:32;98604.75;;;17.29;63.21
51099;BME280;37146;48.210;16.234;2023-06-14T07:58:57;98608.06;;;17.64;63.45
51099;BME280;37146;48.210;16.234;2023-06-14T08:01:23;98615.19;;;17.65;61.88
51099;BME280;37146;48.210;16.234;2023-06-14T08:03:50;98608.78;;;17.66;62.96
51099;BME280;37146;48.210;16.234;2023-06-14T08:06:15;98617.78;;;17.97;60.74
51099;BME280;37146;48.210;16.234;2023-06-14T08:08:40;98620.81;;;17.52;59.74
51099;BME280;37146;48.210;16.234;2023-06-14T08:11:06;98612.81;;;17.71;60.58
51099;BME280;37146;48.210;16.234;2023-06-14T08:13:31;98611.25;;;17.48;59.73
51099;BME280;37146;48.210;16.234;2023-06-14T08:15:57;98619.53;;;17.77;58.57
51099;BME280;37146;48.210;16.234;2023-06-14T08:18:23;98607.81;;;17.67;58.19
51099;BME280;37146;48.210;16.234;2023-06-14T08:20:48;98607.38;;;18.53;58.79
51099;BME280;37146;48.210;16.234;2023-06-14T08:23:15;98606.16;;;18.67;57.01
51099;BME280;37146;48.210;16.234;2023-06-14T08:25:44;98617.16;;;19.05;56.65
51099;BME280;37146;48.210;16.234;2023-06-14T08:28:09;98611.03;;;19.03;56.57
51099;BME280;37146;48.210;16.234;2023-06-14T08:30:34;98620.97;;;19.41;55.24
51099;BME280;37146;48.210;16.234;2023-06-14T08:32:59;98619.69;;;19.26;53.92
51099;BME280;37146;48.210;16.234;2023-06-14T08:35:24;98621.66;;;20.01;55.68
51099;BME280;37146;48.210;16.234;2023-06-14T08:37:50;98612.06;;;20.34;54.12
51099;BME280;37146;48.210;16.234;2023-06-14T08:40:19;98621.50;;;20.02;54.53
51099;BME280;37146;48.210;16.234;2023-06-14T08:42:46;98624.56;;;19.89;53.85
51099;BME280;37146;48.210;16.234;2023-06-14T08:45:12;98625.53;;;19.41;53.69
51099;BME280;37146;48.210;16.234;2023-06-14T08:47:37;98619.66;;;19.55;56.02
51099;BME280;37146;48.210;16.234;2023-06-14T08:50:03;98621.81;;;19.42;55.34
51099;BME280;37146;48.210;16.234;2023-06-14T08:52:29;98620.72;;;19.05;55.62
51099;BME280;37146;48.210;16.234;2023-06-14T08:54:58;98616.69;;;18.80;53.16
51099;BME280;37146;48.210;16.234;2023-06-14T08:57:25;98616.72;;;19.09;53.95
51099;BME280;37146;48.210;16.234;2023-06-14T08:59:55;98628.72;;;19.07;53.05
51099;BME280;37146;48.210;16.234;2023-06-14T09:02:21;98628.63;;;19.66;52.70
51099;BME280;37146;48.210;16.234;2023-06-14T09:04:47;98625.00;;;20.22;54.10
51099;BME280;37146;48.210;16.234;2023-06-14T09:07:14;98625.50;;;19.60;52.71
51099;BME280;37146;48.210;16.234;2023-06-14T09:09:40;98628.03;;;19.72;54.24
51099;BME280;37146;48.210;16.234;2023-06-14T09:12:07;98635.38;;;19.52;52.86
51099;BME280;37146;48.210;16.234;2023-06-14T09:14:37;98635.91;;;19.55;51.86
51099;BME280;37146;48.210;16.234;2023-06-14T09:17:04;98629.47;;;20.42;51.70
51099;BME280;37146;48.210;16.234;2023-06-14T09:19:30;98637.56;;;20.23;50.57
51099;BME280;37146;48.210;16.234;2023-06-14T09:21:55;98633.84;;;20.24;50.29
51099;BME280;37146;48.210;16.234;2023-06-14T09:24:20;98636.09;;;21.03;49.92
51099;BME280;37146;48.210;16.234;2023-06-14T09:26:50;98631.22;;;21.51;47.54
51099;BME280;37146;48.210;16.234;2023-06-14T09:29:16;98625.81;;;20.79;47.37
51099;BME280;37146;48.210;16.234;2023-06-14T09:31:41;98626.16;;;20.94;51.24
51099;BME280;37146;48.210;16.234;2023-06-14T09:34:06;98623.50;;;21.02;49.47
51099;BME280;37146;48.210;16.234;2023-06-14T09:36:32;98617.44;;;20.90;47.71
51099;BME280;37146;48.210;16.234;2023-06-14T09:38:58;98618.13;;;21.10;48.57
51099;BME280;37146;48.210;16.234;2023-06-14T09:41:33;98625.09;;;21.31;49.03
51099;BME280;37146;48.210;16.234;2023-06-14T09:43:59;98620.91;;;20.64;47.89
51099;BME280;37146;48.210;16.234;2023-06-14T09:46:28;98623.28;;;21.84;48.93
51099;BME280;37146;48.210;16.234;2023-06-14T09:48:54;98616.34;;;21.90;47.83
51099;BME280;37146;48.210;16.234;2023-06-14T09:51:20;98617.66;;;21.86;46.09
51099;BME280;37146;48.210;16.234;2023-06-14T09:53:48;98622.31;;;21.23;47.63
51099;BME280;37146;48.210;16.234;2023-06-14T09:56:14;98616.84;;;21.41;47.63
51099;BME280;37146;48.210;16.234;2023-06-14T09:58:41;98610.97;;;21.72;47.21
51099;BME280;37146;48.210;16.234;2023-06-14T10:01:06;98621.44;;;22.28;48.25
51099;BME280;37146;48.210;16.234;2023-06-14T10:03:33;98619.56;;;21.59;47.33
51099;BME280;37146;48.210;16.234;2023-06-14T10:05:59;98610.97;;;22.41;46.16
51099;BME280;37146;48.210;16.234;2023-06-14T10:08:27;98615.41;;;22.07;46.11
51099;BME280;37146;48.210;16.234;2023-06-14T10:10:56;98614.09;;;22.20;45.72
51099;BME280;37146;48.210;16.234;2023-06-14T10:13:21;98608.13;;;22.16;45.56
51099;BME280;37146;48.210;16.234;2023-06-14T10:23:44;98611.28;;;23.30;46.27
51099;BME280;37146;48.210;16.234;2023-06-14T10:26:17;98607.50;;;24.29;44.06
51099;BME280;37146;48.210;16.234;2023-06-14T10:28:43;98608.91;;;24.48;43.19
51099;BME280;37146;48.210;16.234;2023-06-14T10:31:20;98612.13;;;24.60;44.43
51099;BME280;37146;48.210;16.234;2023-06-14T10:33:49;98609.25;;;23.24;42.85
51099;BME280;37146;48.210;16.234;2023-06-14T10:36:30;98612.63;;;23.18;44.67
51099;BME280;37146;48.210;16.234;2023-06-14T10:41:31;98608.25;;;22.06;45.10
51099;BME280;37146;48.210;16.234;2023-06-14T10:46:37;98606.34;;;21.99;48.06
51099;BME280;37146;48.210;16.234;2023-06-14T10:49:03;98611.94;;;21.62;47.74
51099;BME280;37146;48.210;16.234;2023-06-14T10:51:38;98598.84;;;21.22;46.88
51099;BME280;37146;48.210;16.234;2023-06-14T10:54:11;98606.09;;;21.84;45.60
51099;BME280;37146;48.210;16.234;2023-06-14T10:56:36;98610.34;;;22.21;47.15
51099;BME280;37146;48.210;16.234;2023-06-14T10:59:02;98604.84;;;22.47;42.99
51099;BME280;37146;48.210;16.234;2023-06-14T11:01:37;98603.75;;;21.62;44.94
51099;BME280;37146;48.210;16.234;2023-06-14T11:04:09;98603.78;;;23.33;46.68
51099;BME280;37146;48.210;16.234;2023-06-14T11:06:45;98594.34;;;22.77;42.70
51099;BME280;37146;48.210;16.234;2023-06-14T11:09:17;98594.38;;;23.19;45.20
51099;BME280;37146;48.210;16.234;2023-06-14T11:11:46;98587.53;;;22.73;46.08
51099;BME280;37146;48.210;16.234;2023-06-14T11:14:13;98603.06;;;21.95;48.80
51099;BME280;37146;48.210;16.234;2023-06-14T11:16:38;98595.56;;;21.36;46.93
51099;BME280;37146;48.210;16.234;2023-06-14T11:19:03;98602.81;;;21.27;46.77
51099;BME280;37146;48.210;16.234;2023-06-14T11:21:28;98605.84;;;21.51;47.29
51099;BME280;37146;48.210;16.234;2023-06-14T11:23:56;98595.56;;;23.08;43.14
51099;BME280;37146;48.210;16.234;2023-06-14T11:26:28;98593.53;;;23.18;43.64
51099;BME280;37146;48.210;16.234;2023-06-14T11:29:00;98602.13;;;22.47;43.13
51099;BME280;37146;48.210;16.234;2023-06-14T11:31:26;98597.75;;;21.77;44.81
51099;BME280;37146;48.210;16.234;2023-06-14T11:33:58;98598.59;;;21.33;46.20
51099;BME280;37146;48.210;16.234;2023-06-14T11:36:28;98596.09;;;21.40;48.13
51099;BME280;37146;48.210;16.234;2023-06-14T11:39:03;98598.78;;;21.58;49.84
51099;BME280;37146;48.210;16.234;2023-06-14T11:41:32;98599.75;;;22.09;47.11
51099;BME280;37146;48.210;16.234;2023-06-14T11:43:57;98586.53;;;22.74;46.03
51099;BME280;37146;48.210;16.234;2023-06-14T11:46:23;98580.38;;;22.13;44.04
51099;BME280;37146;48.210;16.234;2023-06-14T11:48:50;98586.28;;;22.43;46.73
51099;BME280;37146;48.210;16.234;2023-06-14T11:51:16;98583.44;;;22.18;48.38
51099;BME280;37146;48.210;16.234;2023-06-14T11:53:42;98586.19;;;23.02;46.12
51099;BME280;37146;48.210;16.234;2023-06-14T11:56:07;98585.50;;;22.75;47.60
51099;BME280;37146;48.210;16.234;2023-06-14T11:58:32;98586.19;;;21.83;47.57
51099;BME280;37146;48.210;16.234;2023-06-14T12:00:58;98573.88;;;21.00;46.73
51099;BME280;37146;48.210;16.234;2023-06-14T12:03:23;98576.50;;;20.74;46.85
51099;BME280;37146;48.210;16.234;2023-06-14T12:05:50;98572.03;;;20.82;47.51
51099;BME280;37146;48.210;16.234;2023-06-14T12:08:16;98573.91;;;21.26;46.96
51099;BME280;37146;48.210;16.234;2023-06-14T12:10:44;98575.06;;;22.62;46.58
51099;BME280;37146;48.210;16.234;2023-06-14T12:13:09;98565.72;;;22.73;43.12
51099;BME280;37146;48.210;16.234;2023-06-14T12:15:35;98563.19;;;23.05;45.46
51099;BME280;37146;48.210;16.234;2023-06-14T12:18:01;98562.31;;;24.10;44.03
51099;BME280;37146;48.210;16.234;2023-06-14T12:20:29;98567.88;;;23.77;43.20
51099;BME280;37146;48.210;16.234;2023-06-14T12:22:56;98570.16;;;23.57;40.03
51099;BME280;37146;48.210;16.234;2023-06-14T12:25:28;98569.28;;;22.49;41.66
51099;BME280;37146;48.210;16.234;2023-06-14T12:27:56;98572.16;;;22.47;42.20
51099;BME280;37146;48.210;16.234;2023-06-14T12:30:21;98581.09;;;22.23;43.39
51099;BME280;37146;48.210;16.234;2023-06-14T12:32:47;98575.31;;;21.91;42.75
51099;BME280;37146;48.210;16.234;2023-06-14T12:35:13;98570.19;;;22.23;42.50
51099;BME280;37146;48.210;16.234;2023-06-14T12:37:38;98565.09;;;21.85;44.67
51099;BME280;37146;48.210;16.234;2023-06-14T12:40:03;98557.00;;;22.61;44.62
51099;BME280;37146;48.210;16.234;2023-06-14T12:42:30;98558.59;;;23.05;44.50
51099;BME280;37146;48.210;16.234;2023-06-14T12:44:56;98561.44;;;23.70;44.18
51099;BME280;37146;48.210;16.234;2023-06-14T12:47:21;98556.81;;;24.18;42.28
51099;BME280;37146;48.210;16.234;2023-06-14T12:49:46;98565.41;;;23.34;42.18
51099;BME280;37146;48.210;16.234;2023-06-14T12:52:11;98562.81;;;22.75;45.71
51099;BME280;37146;48.210;16.234;2023-06-14T12:54:37;98566.91;;;22.62;46.69
51099;BME280;37146;48.210;16.234;2023-06-14T12:57:04;98558.88;;;22.01;45.70
51099;BME280;37146;48.210;16.234;2023-06-14T12:59:29;98572.13;;;21.61;44.25
51099;BME280;37146;48.210;16.234;2023-06-14T13:01:58;98561.91;;;21.11;45.68
51099;BME280;37146;48.210;16.234;2023-06-14T13:04:23;98564.31;;;20.96;45.14
51099;BME280;37146;48.210;16.234;2023-06-14T13:06:48;98563.06;;;20.90;45.71